sensor_id;sensor_type;location;lat;lon;timestamp;pressure;altitude;pressure_sealevel;temperature;humidity
69402;BME280;56589;51.992;5.924;2023-08-24T00:00:18;101316.72;;;17.82;69.07
69402;BME280;56589;51.992;5.924;2023-08-24T00:02:44;101306.22;;;17.81;69.23
69402;BME280;56589;51.992;5.924;2023-08-24T00:05:11;101303.72;;;17.79;69.46
69402;BME280;56589;51.992;5.924;2023-08-24T00:07:37;101298.41;;;17.79;69.60
69402;BME280;56589;51.992;5.924;2023-08-24T00:10:05;101300.31;;;17.77;69.38
69402;BME280;56589;51.992;5.924;2023-08-24T00:12:35;101302.13;;;17.76;69.58
69402;BME280;56589;51.992;5.924;2023-08-24T00:15:01;101313.75;;;17.75;69.57
69402;BME280;56589;51.992;5.924;2023-08-24T00:17:27;101310.25;;;17.75;69.63
69402;BME280;56589;51.992;5.924;2023-08-24T00:19:57;101305.19;;;17.72;69.67
69402;BME280;56589;51.992;5.924;2023-08-24T00:22:23;101306.16;;;17.71;70.06
69402;BME280;56589;51.992;5.924;2023-08-24T00:24:50;101308.81;;;17.71;70.02
69402;BME280;56589;51.992;5.924;2023-08-24T00:27:17;101307.72;;;17.73;70.11
69402;BME280;56589;51.992;5.924;2023-08-24T00:29:47;101306.06;;;17.72;70.21
69402;BME280;56589;51.992;5.924;2023-08-24T00:32:13;101302.66;;;17.70;70.17
69402;BME280;56589;51.992;5.924;2023-08-24T00:34:39;101295.81;;;17.68;70.09
69402;BME280;56589;51.992;5.924;2023-08-24T00:37:05;101273.72;;;17.67;69.98
69402;BME280;56589;51.992;5.924;2023-08-24T00:39:31;101262.47;;;17.64;70.50
69402;BME280;56589;51.992;5.924;2023-08-24T00:41:57;101267.25;;;17.60;71.05
69402;BME280;56589;51.992;5.924;2023-08-24T00:44:23;101286.06;;;17.57;71.05
69402;BME280;56589;51.992;5.924;2023-08-24T00:46:54;101288.72;;;17.57;71.06
69402;BME280;56589;51.992;5.924;2023-08-24T00:49:21;101295.84;;;17.57;71.44
69402;BME280;56589;51.992;5.924;2023-08-24T00:51:49;101301.03;;;17.58;71.11
69402;BME280;56589;51.992;5.924;2023-08-24T00:54:16;101296.31;;;17.62;71.28
69402;BME280;56589;51.992;5.924;2023-08-24T00:56:43;101299.81;;;17.62;71.27
69402;BME280;56589;51.992;5.924;2023-08-24T00:59:10;101290.16;;;17.61;71.76
69402;BME280;56589;51.992;5.924;2023-08-24T01:01:38;101297.41;;;17.59;71.82
69402;BME280;56589;51.992;5.924;2023-08-24T01:04:11;101285.38;;;17.55;72.30
69402;BME280;56589;51.992;5.924;2023-08-24T01:06:37;101288.28;;;17.52;72.55
69402;BME280;56589;51.992;5.924;2023-08-24T01:09:03;101275.00;;;17.52;72.88
69402;BME280;56589;51.992;5.924;2023-08-24T01:11:42;101270.53;;;17.52;73.16
69402;BME280;56589;51.992;5.924;2023-08-24T01:17:09;101278.94;;;17.58;72.80
69402;BME280;56589;51.992;5.924;2023-08-24T01:19:43;101277.28;;;17.57;72.72
69402;BME280;56589;51.992;5.924;2023-08-24T01:22:25;101274.75;;;17.55;73.28
69402;BME280;56589;51.992;5.924;2023-08-24T01:25:05;101276.56;;;17.55;73.23
69402;BME280;56589;51.992;5.924;2023-08-24T01:27:39;101278.09;;;17.57;73.02
69402;BME280;56589;51.992;5.924;2023-08-24T01:30:08;101286.91;;;17.58;73.42
69402;BME280;56589;51.992;5.924;2023-08-24T01:32:36;101287.06;;;17.56;73.28
69402;BME280;56589;51.992;5.924;2023-08-24T01:35:05;101278.38;;;17.54;73.16
69402;BME280;56589;51.992;5.924;2023-08-24T01:37:34;101272.94;;;17.56;73.63
69402;BME280;56589;51.992;5.924;2023-08-24T01:40:05;101270.41;;;17.54;73.57
69402;BME280;56589;51.992;5.924;2023-08-24T01:42:43;101265.94;;;17.55;73.87
69402;BME280;56589;51.992;5.924;2023-08-24T01:45:16;101274.75;;;17.55;73.77
69402;BME280;56589;51.992;5.924;2023-08-24T01:47:45;101266.66;;;17.57;73.77
69402;BME280;56589;51.992;5.924;2023-08-24T01:50:14;101273.78;;;17.56;73.59
69402;BME280;56589;51.992;5.924;2023-08-24T01:52:42;101263.00;;;17.58;73.64
69402;BME280;56589;51.992;5.924;2023-08-24T01:55:08;101269.16;;;17.58;73.74
69402;BME280;56589;51.992;5.924;2023-08-24T01:57:34;101266.66;;;17.57;74.14
69402;BME280;56589;51.992;5.924;2023-08-24T02:00:03;101266.50;;;17.58;74.31
69402;BME280;56589;51.992;5.924;2023-08-24T02:02:31;101258.53;;;17.58;74.27
69402;BME280;56589;51.992;5.924;2023-08-24T02:04:59;101262.19;;;17.57;74.16
69402;BME280;56589;51.992;5.924;2023-08-24T02:07:26;101263.16;;;17.56;74.20
69402;BME280;56589;51.992;5.924;2023-08-24T02:09:52;101269.31;;;17.57;74.39
69402;BME280;56589;51.992;5.924;2023-08-24T02:12:18;101269.03;;;17.60;74.80
69402;BME280;56589;51.992;5.924;2023-08-24T02:14:44;101287.38;;;17.63;74.25
69402;BME280;56589;51.992;5.924;2023-08-24T02:17:13;101281.06;;;17.64;74.31
69402;BME280;56589;51.992;5.924;2023-08-24T02:19:39;101284.34;;;17.67;74.70
69402;BME280;56589;51.992;5.924;2023-08-24T02:22:05;101289.38;;;17.70;74.27
69402;BME280;56589;51.992;5.924;2023-08-24T02:24:31;101288.31;;;17.73;74.44
69402;BME280;56589;51.992;5.924;2023-08-24T02:26:57;101285.13;;;17.79;74.01
69402;BME280;56589;51.992;5.924;2023-08-24T02:29:23;101270.25;;;17.76;74.56
69402;BME280;56589;51.992;5.924;2023-08-24T02:31:51;101259.91;;;17.73;74.51
69402;BME280;56589;51.992;5.924;2023-08-24T02:34:20;101259.34;;;17.70;74.28
69402;BME280;56589;51.992;5.924;2023-08-24T02:36:48;101267.16;;;17.71;74.60
69402;BME280;56589;51.992;5.924;2023-08-24T02:39:15;101270.09;;;17.68;74.63
69402;BME280;56589;51.992;5.924;2023-08-24T02:41:41;101268.41;;;17.67;74.75
69402;BME280;56589;51.992;5.924;2023-08-24T02:44:07;101268.41;;;17.67;74.79
69402;BME280;56589;51.992;5.924;2023-08-24T02:46:33;101260.53;;;17.66;75.02
69402;BME280;56589;51.992;5.924;2023-08-24T02:49:01;101257.44;;;17.61;75.01
69402;BME280;56589;51.992;5.924;2023-08-24T02:51:30;101254.34;;;17.56;75.56
69402;BME280;56589;51.992;5.924;2023-08-24T02:53:57;101236.28;;;17.49;75.47
69402;BME280;56589;51.992;5.924;2023-08-24T02:56:24;101233.31;;;17.43;76.27
69402;BME280;56589;51.992;5.924;2023-08-24T02:58:52;101230.34;;;17.36;76.36
69402;BME280;56589;51.992;5.924;2023-08-24T03:01:20;101245.97;;;17.30;76.45
69402;BME280;56589;51.992;5.924;2023-08-24T03:03:47;101252.13;;;17.30;76.87
69402;BME280;56589;51.992;5.924;2023-08-24T03:06:14;101248.47;;;17.31;76.60
69402;BME280;56589;51.992;5.924;2023-08-24T03:08:43;101225.69;;;17.29;76.98
69402;BME280;56589;51.992;5.924;2023-08-24T03:11:09;101195.22;;;17.23;77.04
69402;BME280;56589;51.992;5.924;2023-08-24T03:13:37;101187.78;;;17.17;77.63
69402;BME280;56589;51.992;5.924;2023-08-24T03:16:04;101183.72;;;17.13;78.06
69402;BME280;56589;51.992;5.924;2023-08-24T03:18:31;101177.81;;;17.09;78.09
69402;BME280;56589;51.992;5.924;2023-08-24T03:20:57;101190.09;;;17.10;78.05
69402;BME280;56589;51.992;5.924;2023-08-24T03:23:24;101188.19;;;17.12;78.16
69402;BME280;56589;51.992;5.924;2023-08-24T03:25:54;101180.91;;;17.14;78.24
69402;BME280;56589;51.992;5.924;2023-08-24T03:28:21;101171.41;;;17.12;78.54
69402;BME280;56589;51.992;5.924;2023-08-24T03:30:50;101169.75;;;17.11;79.05
69402;BME280;56589;51.992;5.924;2023-08-24T03:33:18;101162.63;;;17.11;78.76
69402;BME280;56589;51.992;5.924;2023-08-24T03:35:44;101162.63;;;17.11;79.40
69402;BME280;56589;51.992;5.924;2023-08-24T03:38:10;101165.53;;;17.08;79.02
69402;BME280;56589;51.992;5.924;2023-08-24T03:40:36;101157.84;;;17.05;79.24
69402;BME280;56589;51.992;5.924;2023-08-24T03:43:06;101152.53;;;17.05;79.08
69402;BME280;56589;51.992;5.924;2023-08-24T03:45:33;101148.06;;;17.06;79.48
69402;BME280;56589;51.992;5.924;2023-08-24T03:48:00;101146.25;;;17.06;79.37
69402;BME280;56589;51.992;5.924;2023-08-24T03:50:28;101134.66;;;17.07;79.48
69402;BME280;56589;51.992;5.924;2023-08-24T03:52:55;101144.28;;;17.08;79.04
69402;BME280;56589;51.992;5.924;2023-08-24T03:55:21;101154.06;;;17.08;79.39
69402;BME280;56589;51.992;5.924;2023-08-24T03:57:49;101142.63;;;17.07;79.28
69402;BME280;56589;51.992;5.924;2023-08-24T04:00:19;101148.16;;;17.04;79.09
69402;BME280;56589;51.992;5.924;2023-08-24T04:02:45;101151.81;;;17.03;79.08
69402;BME280;56589;51.992;5.924;2023-08-24T04:05:12;101142.16;;;17.02;79.41
69402;BME280;56589;51.992;5.924;2023-08-24T04:07:38;101139.50;;;17.02;79.50
69402;BME280;56589;51.992;5.924;2023-08-24T04:10:05;101136.16;;;17.00;79.51
69402;BME280;56589;51.992;5.924;2023-08-24T04:12:32;101131.84;;;16.99;79.58
69402;BME280;56589;51.992;5.924;2023-08-24T04:14:58;101140.75;;;16.98;79.55
69402;BME280;56589;51.992;5.924;2023-08-24T04:17:27;101138.94;;;16.98;79.46
69402;BME280;56589;51.992;5.924;2023-08-24T04:19:55;101126.63;;;16.97;79.65
69402;BME280;56589;51.992;5.924;2023-08-24T04:22:22;101117.00;;;16.96;79.42
69402;BME280;56589;51.992;5.924;2023-08-24T04:24:50;101122.69;;;16.92;79.53
69402;BME280;56589;51.992;5.924;2023-08-24T04:27:17;101118.50;;;16.89;79.84
69402;BME280;56589;51.992;5.924;2023-08-24T04:29:42;101116.13;;;16.86;79.85
69402;BME280;56589;51.992;5.924;2023-08-24T04:32:09;101116.38;;;16.83;79.70
69402;BME280;56589;51.992;5.924;2023-08-24T04:34:37;101117.72;;;16.78;79.79
69402;BME280;56589;51.992;5.924;2023-08-24T04:37:05;101117.72;;;16.78;80.03
69402;BME280;56589;51.992;5.924;2023-08-24T04:39:32;101118.56;;;16.78;79.87
69402;BME280;56589;51.992;5.924;2023-08-24T04:41:58;101120.38;;;16.78;80.48
69402;BME280;56589;51.992;5.924;2023-08-24T04:44:24;101127.38;;;16.79;80.02
69402;BME280;56589;51.992;5.924;2023-08-24T04:46:52;101121.09;;;16.80;79.95
69402;BME280;56589;51.992;5.924;2023-08-24T04:49:19;101118.56;;;16.78;80.24
69402;BME280;56589;51.992;5.924;2023-08-24T04:51:49;101104.75;;;16.75;80.58
69402;BME280;56589;51.992;5.924;2023-08-24T04:54:17;101111.59;;;16.77;80.07
69402;BME280;56589;51.992;5.924;2023-08-24T04:56:43;101103.63;;;16.77;80.35
69402;BME280;56589;51.992;5.924;2023-08-24T04:59:09;101110.63;;;16.78;80.29
69402;BME280;56589;51.992;5.924;2023-08-24T05:01:35;101118.44;;;16.80;79.92
69402;BME280;56589;51.992;5.924;2023-08-24T05:04:02;101114.94;;;16.79;80.55
69402;BME280;56589;51.992;5.924;2023-08-24T05:06:29;101116.50;;;16.82;80.61
69402;BME280;56589;51.992;5.924;2023-08-24T05:08:59;101107.31;;;16.86;80.17
69402;BME280;56589;51.992;5.924;2023-08-24T05:11:27;101114.03;;;16.90;80.48
69402;BME280;56589;51.992;5.924;2023-08-24T05:13:56;101114.72;;;16.92;80.34
69402;BME280;56589;51.992;5.924;2023-08-24T05:16:23;101115.31;;;16.95;80.32
69402;BME280;56589;51.992;5.924;2023-08-24T05:18:51;101110.59;;;16.99;80.04
69402;BME280;56589;51.992;5.924;2023-08-24T05:21:17;101111.03;;;17.04;80.02
69402;BME280;56589;51.992;5.924;2023-08-24T05:23:43;101112.22;;;17.11;79.83
69402;BME280;56589;51.992;5.924;2023-08-24T05:26:12;101118.06;;;17.15;79.98
69402;BME280;56589;51.992;5.924;2023-08-24T05:28:38;101118.66;;;17.18;80.12
69402;BME280;56589;51.992;5.924;2023-08-24T05:31:04;101122.00;;;17.20;79.99
69402;BME280;56589;51.992;5.924;2023-08-24T05:33:31;101124.41;;;17.23;79.66
69402;BME280;56589;51.992;5.924;2023-08-24T05:35:57;101127.22;;;17.32;79.76
69402;BME280;56589;51.992;5.924;2023-08-24T05:38:23;101129.91;;;17.41;79.78
69402;BME280;56589;51.992;5.924;2023-08-24T05:40:51;101128.53;;;17.47;79.15
69402;BME280;56589;51.992;5.924;2023-08-24T05:43:21;101135.13;;;17.52;79.40
69402;BME280;56589;51.992;5.924;2023-08-24T05:45:49;101127.75;;;17.56;79.00
69402;BME280;56589;51.992;5.924;2023-08-24T05:48:17;101116.56;;;17.62;79.16
69402;BME280;56589;51.992;5.924;2023-08-24T05:50:44;101116.06;;;17.78;79.26
69402;BME280;56589;51.992;5.924;2023-08-24T05:53:10;101118.22;;;18.03;79.13
69402;BME280;56589;51.992;5.924;2023-08-24T05:55:37;101112.47;;;18.37;78.64
69402;BME280;56589;51.992;5.924;2023-08-24T05:58:05;101114.00;;;18.78;78.36
69402;BME280;56589;51.992;5.924;2023-08-24T06:00:34;101112.63;;;19.21;76.80
69402;BME280;56589;51.992;5.924;2023-08-24T06:03:01;101111.97;;;19.47;75.81
69402;BME280;56589;51.992;5.924;2023-08-24T06:05:30;101111.25;;;19.72;74.63
69402;BME280;56589;51.992;5.924;2023-08-24T06:07:56;101112.28;;;20.07;73.69
69402;BME280;56589;51.992;5.924;2023-08-24T06:10:22;101090.66;;;20.45;73.65
69402;BME280;56589;51.992;5.924;2023-08-24T06:12:51;101092.78;;;20.86;72.06
69402;BME280;56589;51.992;5.924;2023-08-24T06:15:18;101091.16;;;21.27;71.63
69402;BME280;56589;51.992;5.924;2023-08-24T06:17:48;101086.28;;;21.65;70.11
69402;BME280;56589;51.992;5.924;2023-08-24T06:20:16;101072.13;;;21.80;68.46
69402;BME280;56589;51.992;5.924;2023-08-24T06:22:42;101069.66;;;21.87;67.95
69402;BME280;56589;51.992;5.924;2023-08-24T06:25:09;101066.00;;;22.04;67.53
69402;BME280;56589;51.992;5.924;2023-08-24T06:27:35;101056.78;;;22.31;67.25
69402;BME280;56589;51.992;5.924;2023-08-24T06:30:03;101054.28;;;22.46;65.55
69402;BME280;56589;51.992;5.924;2023-08-24T06:32:31;101044.75;;;22.52;65.22
69402;BME280;56589;51.992;5.924;2023-08-24T06:35:00;101049.59;;;22.73;65.00
69402;BME280;56589;51.992;5.924;2023-08-24T06:37:27;101051.69;;;23.02;64.65
69402;BME280;56589;51.992;5.924;2023-08-24T06:39:54;101049.72;;;23.35;63.67
69402;BME280;56589;51.992;5.924;2023-08-24T06:42:21;101044.91;;;23.53;62.76
69402;BME280;56589;51.992;5.924;2023-08-24T06:44:49;101058.09;;;23.86;62.14
69402;BME280;56589;51.992;5.924;2023-08-24T06:47:15;101057.19;;;24.25;60.94
69402;BME280;56589;51.992;5.924;2023-08-24T06:49:41;101065.84;;;24.50;59.30
69402;BME280;56589;51.992;5.924;2023-08-24T06:52:10;101066.13;;;24.55;58.74
69402;BME280;56589;51.992;5.924;2023-08-24T06:54:36;101062.88;;;24.59;58.70
69402;BME280;56589;51.992;5.924;2023-08-24T06:57:02;101054.47;;;24.62;58.33
69402;BME280;56589;51.992;5.924;2023-08-24T06:59:28;101048.59;;;24.82;58.52
69402;BME280;56589;51.992;5.924;2023-08-24T07:01:54;101045.25;;;24.94;56.43
69402;BME280;56589;51.992;5.924;2023-08-24T07:04:20;101044.03;;;24.67;56.19
69402;BME280;56589;51.992;5.924;2023-08-24T07:06:48;101047.19;;;24.33;56.60
69402;BME280;56589;51.992;5.924;2023-08-24T07:09:18;101045.41;;;24.11;56.86
69402;BME280;56589;51.992;5.924;2023-08-24T07:11:45;101055.72;;;23.91;56.61
69402;BME280;56589;51.992;5.924;2023-08-24T07:14:11;101046.94;;;23.51;57.10
69402;BME280;56589;51.992;5.924;2023-08-24T07:16:37;101036.38;;;23.19;57.99
69402;BME280;56589;51.992;5.924;2023-08-24T07:19:03;101021.38;;;23.01;58.39
69402;BME280;56589;51.992;5.924;2023-08-24T07:21:29;101014.06;;;22.87;58.62
69402;BME280;56589;51.992;5.924;2023-08-24T07:23:55;101014.13;;;22.71;58.53
69402;BME280;56589;51.992;5.924;2023-08-24T07:26:24;101007.44;;;22.58;59.61
69402;BME280;56589;51.992;5.924;2023-08-24T07:28:51;101024.84;;;22.63;59.62
69402;BME280;56589;51.992;5.924;2023-08-24T07:31:19;101025.34;;;22.66;59.17
69402;BME280;56589;51.992;5.924;2023-08-24T07:33:45;101027.38;;;22.64;59.68
69402;BME280;56589;51.992;5.924;2023-08-24T07:36:11;101025.84;;;22.70;59.39
69402;BME280;56589;51.992;5.924;2023-08-24T07:38:37;101024.47;;;22.74;59.67
69402;BME280;56589;51.992;5.924;2023-08-24T07:41:03;101029.66;;;22.75;59.29
69402;BME280;56589;51.992;5.924;2023-08-24T07:43:31;101025.66;;;22.71;59.54
69402;BME280;56589;51.992;5.924;2023-08-24T07:45:59;101022.47;;;22.76;59.76
69402;BME280;56589;51.992;5.924;2023-08-24T07:48:26;101023.47;;;22.75;58.70
69402;BME280;56589;51.992;5.924;2023-08-24T07:50:54;101021.00;;;22.65;58.89
69402;BME280;56589;51.992;5.924;2023-08-24T07:53:22;101024.34;;;22.67;59.07
69402;BME280;56589;51.992;5.924;2023-08-24T07:55:50;101019.81;;;22.68;58.83
69402;BME280;56589;51.992;5.924;2023-08-24T07:58:18;101012.25;;;22.79;59.23
69402;BME280;56589;51.992;5.924;2023-08-24T08:00:49;101019.91;;;22.91;59.11
69402;BME280;56589;51.992;5.924;2023-08-24T08:03:16;101029.09;;;22.96;58.99
69402;BME280;56589;51.992;5.924;2023-08-24T08:05:42;101021.53;;;23.00;58.93
69402;BME280;56589;51.992;5.924;2023-08-24T08:08:09;101021.03;;;23.04;58.88
69402;BME280;56589;51.992;5.924;2023-08-24T08:10:35;101024.66;;;23.20;58.03
69402;BME280;56589;51.992;5.924;2023-08-24T08:13:03;101020.25;;;23.27;58.04
69402;BME280;56589;51.992;5.924;2023-08-24T08:15:29;101022.22;;;23.33;58.51
69402;BME280;56589;51.992;5.924;2023-08-24T08:18:00;101038.41;;;23.48;58.17
69402;BME280;56589;51.992;5.924;2023-08-24T08:20:26;101041.91;;;23.56;58.29
69402;BME280;56589;51.992;5.924;2023-08-24T08:22:52;101037.13;;;23.66;57.70
69402;BME280;56589;51.992;5.924;2023-08-24T08:25:18;101026.09;;;23.84;57.91
69402;BME280;56589;51.992;5.924;2023-08-24T08:27:44;101024.66;;;24.05;57.82
69402;BME280;56589;51.992;5.924;2023-08-24T08:30:12;101035.72;;;24.25;57.29
69402;BME280;56589;51.992;5.924;2023-08-24T08:32:38;101027.97;;;24.30;56.73
69402;BME280;56589;51.992;5.924;2023-08-24T08:35:08;101026.00;;;24.24;56.19
69402;BME280;56589;51.992;5.924;2023-08-24T08:37:34;101026.53;;;24.19;56.58
69402;BME280;56589;51.992;5.924;2023-08-24T08:40:01;101028.75;;;24.15;56.81
69402;BME280;56589;51.992;5.924;2023-08-24T08:42:29;101026.44;;;24.12;56.60
69402;BME280;56589;51.992;5.924;2023-08-24T08:44:56;101025.72;;;24.18;57.23
69402;BME280;56589;51.992;5.924;2023-08-24T08:47:22;101003.13;;;24.28;57.13
69402;BME280;56589;51.992;5.924;2023-08-24T08:49:49;100999.19;;;24.38;56.54
69402;BME280;56589;51.992;5.924;2023-08-24T08:52:20;100995.22;;;24.49;57.00
69402;BME280;56589;51.992;5.924;2023-08-24T08:54:48;100987.69;;;24.59;56.29
69402;BME280;56589;51.992;5.924;2023-08-24T08:57:16;100984.28;;;24.65;56.16
69402;BME280;56589;51.992;5.924;2023-08-24T08:59:45;100976.69;;;24.69;56.88
69402;BME280;56589;51.992;5.924;2023-08-24T09:02:14;100965.31;;;24.82;56.30
69402;BME280;56589;51.992;5.924;2023-08-24T09:04:44;100959.00;;;24.89;56.13
69402;BME280;56589;51.992;5.924;2023-08-24T09:07:11;100951.88;;;24.96;56.29
69402;BME280;56589;51.992;5.924;2023-08-24T09:09:41;100936.66;;;25.04;55.57
69402;BME280;56589;51.992;5.924;2023-08-24T09:12:09;100933.09;;;25.18;55.80
69402;BME280;56589;51.992;5.924;2023-08-24T09:14:35;100940.25;;;25.32;55.71
69402;BME280;56589;51.992;5.924;2023-08-24T09:17:01;100933.38;;;25.44;55.88
69402;BME280;56589;51.992;5.924;2023-08-24T09:19:28;100932.81;;;25.49;55.34
69402;BME280;56589;51.992;5.924;2023-08-24T09:21:56;100927.50;;;25.56;55.13
69402;BME280;56589;51.992;5.924;2023-08-24T09:24:29;100919.69;;;25.61;53.79
69402;BME280;56589;51.992;5.924;2023-08-24T09:26:59;100913.84;;;25.57;53.62
69402;BME280;56589;51.992;5.924;2023-08-24T09:29:36;100907.59;;;25.50;54.36
69402;BME280;56589;51.992;5.924;2023-08-24T09:32:03;100894.41;;;25.55;54.02
69402;BME280;56589;51.992;5.924;2023-08-24T09:34:29;100888.25;;;25.61;53.77
69402;BME280;56589;51.992;5.924;2023-08-24T09:36:55;100889.09;;;25.62;54.02
69402;BME280;56589;51.992;5.924;2023-08-24T09:39:21;100873.56;;;25.64;54.18
69402;BME280;56589;51.992;5.924;2023-08-24T09:41:50;100877.22;;;25.77;53.69
69402;BME280;56589;51.992;5.924;2023-08-24T09:44:20;100869.31;;;25.76;53.94
69402;BME280;56589;51.992;5.924;2023-08-24T09:46:47;100869.97;;;25.78;54.59
69402;BME280;56589;51.992;5.924;2023-08-24T09:49:15;100876.75;;;26.02;53.85
69402;BME280;56589;51.992;5.924;2023-08-24T09:51:41;100880.88;;;26.26;53.36
69402;BME280;56589;51.992;5.924;2023-08-24T09:54:09;100881.19;;;26.51;52.90
69402;BME280;56589;51.992;5.924;2023-08-24T09:56:38;100882.75;;;26.73;52.11
69402;BME280;56589;51.992;5.924;2023-08-24T09:59:11;100883.81;;;26.79;51.56
69402;BME280;56589;51.992;5.924;2023-08-24T10:01:42;100886.16;;;26.95;51.42
69402;BME280;56589;51.992;5.924;2023-08-24T10:04:09;100890.31;;;27.04;51.04
69402;BME280;56589;51.992;5.924;2023-08-24T10:06:38;100898.19;;;26.99;51.05
69402;BME280;56589;51.992;5.924;2023-08-24T10:09:07;100911.22;;;26.89;50.75
69402;BME280;56589;51.992;5.924;2023-08-24T10:11:42;100913.41;;;26.72;50.41
69402;BME280;56589;51.992;5.924;2023-08-24T10:14:21;100913.94;;;26.54;50.89
69402;BME280;56589;51.992;5.924;2023-08-24T10:16:58;100910.38;;;26.47;50.70
69402;BME280;56589;51.992;5.924;2023-08-24T10:19:25;100912.59;;;26.37;50.95
69402;BME280;56589;51.992;5.924;2023-08-24T10:21:55;100913.63;;;26.36;51.24
69402;BME280;56589;51.992;5.924;2023-08-24T10:24:25;100907.41;;;26.36;51.88
69402;BME280;56589;51.992;5.924;2023-08-24T10:26:55;100909.69;;;26.32;51.89
69402;BME280;56589;51.992;5.924;2023-08-24T10:29:25;100898.88;;;26.25;51.50
69402;BME280;56589;51.992;5.924;2023-08-24T10:31:57;100895.50;;;26.17;52.23
69402;BME280;56589;51.992;5.924;2023-08-24T10:34:24;100885.56;;;26.17;52.22
69402;BME280;56589;51.992;5.924;2023-08-24T10:36:50;100875.81;;;26.10;52.07
69402;BME280;56589;51.992;5.924;2023-08-24T10:39:17;100870.94;;;25.98;52.47
69402;BME280;56589;51.992;5.924;2023-08-24T10:41:49;100859.53;;;25.96;52.83
69402;BME280;56589;51.992;5.924;2023-08-24T10:44:21;100857.47;;;25.98;53.05
69402;BME280;56589;51.992;5.924;2023-08-24T10:47:15;100855.63;;;25.99;52.89
69402;BME280;56589;51.992;5.924;2023-08-24T10:49:45;100852.47;;;25.89;52.71
69402;BME280;56589;51.992;5.924;2023-08-24T10:52:24;100852.31;;;25.69;53.00
69402;BME280;56589;51.992;5.924;2023-08-24T10:54:53;100851.00;;;25.58;53.57
69402;BME280;56589;51.992;5.924;2023-08-24T10:57:22;100837.47;;;25.51;53.41
69402;BME280;56589;51.992;5.924;2023-08-24T11:00:00;100837.19;;;25.40;53.75
69402;BME280;56589;51.992;5.924;2023-08-24T11:02:41;100845.75;;;25.29;54.31
69402;BME280;56589;51.992;5.924;2023-08-24T11:05:19;100856.94;;;25.32;54.53
69402;BME280;56589;51.992;5.924;2023-08-24T11:07:54;100847.22;;;25.31;54.37
69402;BME280;56589;51.992;5.924;2023-08-24T11:10:21;100855.47;;;25.30;54.48
69402;BME280;56589;51.992;5.924;2023-08-24T11:13:09;100854.91;;;25.34;54.42
69402;BME280;56589;51.992;5.924;2023-08-24T11:15:38;100853.06;;;25.35;54.34
69402;BME280;56589;51.992;5.924;2023-08-24T11:18:20;100849.97;;;25.38;54.55
69402;BME280;56589;51.992;5.924;2023-08-24T11:20:50;100849.22;;;25.44;54.44
69402;BME280;56589;51.992;5.924;2023-08-24T11:23:18;100852.38;;;25.47;54.49
69402;BME280;56589;51.992;5.924;2023-08-24T11:25:49;100854.84;;;25.49;54.70
69402;BME280;56589;51.992;5.924;2023-08-24T11:28:18;100860.22;;;25.49;54.83
69402;BME280;56589;51.992;5.924;2023-08-24T11:30:49;100854.28;;;25.54;54.87
69402;BME280;56589;51.992;5.924;2023-08-24T11:33:27;100841.88;;;25.52;54.45
69402;BME280;56589;51.992;5.924;2023-08-24T11:35:56;100827.72;;;25.44;53.83
69402;BME280;56589;51.992;5.924;2023-08-24T11:38:23;100829.78;;;25.42;54.23
69402;BME280;56589;51.992;5.924;2023-08-24T11:40:50;100831.06;;;25.46;54.09
69402;BME280;56589;51.992;5.924;2023-08-24T11:43:23;100826.56;;;25.53;54.88
69402;BME280;56589;51.992;5.924;2023-08-24T11:45:52;100827.03;;;25.63;54.39
69402;BME280;56589;51.992;5.924;2023-08-24T11:48:23;100827.31;;;25.75;54.24
69402;BME280;56589;51.992;5.924;2023-08-24T11:50:51;100814.75;;;25.82;53.58
69402;BME280;56589;51.992;5.924;2023-08-24T11:53:19;100805.25;;;25.86;53.27
69402;BME280;56589;51.992;5.924;2023-08-24T11:55:45;100801.53;;;25.87;53.93
69402;BME280;56589;51.992;5.924;2023-08-24T11:58:14;100797.44;;;25.91;53.65
69402;BME280;56589;51.992;5.924;2023-08-24T12:00:41;100786.03;;;25.89;53.92
69402;BME280;56589;51.992;5.924;2023-08-24T12:03:07;100786.66;;;25.91;53.17
69402;BME280;56589;51.992;5.924;2023-08-24T12:05:36;100787.50;;;25.92;53.25
69402;BME280;56589;51.992;5.924;2023-08-24T12:08:03;100786.88;;;25.90;53.59
69402;BME280;56589;51.992;5.924;2023-08-24T12:10:29;100777.19;;;25.95;53.25
69402;BME280;56589;51.992;5.924;2023-08-24T12:13:03;100779.66;;;25.97;52.97
69402;BME280;56589;51.992;5.924;2023-08-24T12:15:34;100767.66;;;25.99;53.15
69402;BME280;56589;51.992;5.924;2023-08-24T12:18:07;100769.13;;;26.02;52.53
69402;BME280;56589;51.992;5.924;2023-08-24T12:20:36;100759.78;;;25.98;53.03
69402;BME280;56589;51.992;5.924;2023-08-24T12:23:03;100757.09;;;25.98;52.73
69402;BME280;56589;51.992;5.924;2023-08-24T12:25:36;100752.34;;;26.00;52.76
69402;BME280;56589;51.992;5.924;2023-08-24T12:28:11;100744.88;;;25.95;53.08
69402;BME280;56589;51.992;5.924;2023-08-24T12:30:49;100748.16;;;25.91;53.27
69402;BME280;56589;51.992;5.924;2023-08-24T12:33:22;100747.34;;;25.90;53.18
69402;BME280;56589;51.992;5.924;2023-08-24T12:35:53;100737.19;;;25.86;53.32
69402;BME280;56589;51.992;5.924;2023-08-24T12:38:20;100735.31;;;25.86;53.35
69402;BME280;56589;51.992;5.924;2023-08-24T12:40:49;100730.34;;;25.83;53.31
69402;BME280;56589;51.992;5.924;2023-08-24T12:43:17;100724.50;;;25.73;53.77
69402;BME280;56589;51.992;5.924;2023-08-24T12:45:44;100718.25;;;25.66;53.52
69402;BME280;56589;51.992;5.924;2023-08-24T12:48:10;100724.00;;;25.63;54.21
69402;BME280;56589;51.992;5.924;2023-08-24T12:50:38;100721.16;;;25.64;54.10
69402;BME280;56589;51.992;5.924;2023-08-24T12:53:07;100712.28;;;25.70;54.34
69402;BME280;56589;51.992;5.924;2023-08-24T12:55:33;100701.31;;;25.72;54.70
69402;BME280;56589;51.992;5.924;2023-08-24T12:58:00;100701.47;;;25.64;54.26